createdAt,value
2022-07-30T00:00:24.833Z,52.00
2022-07-30T00:03:34.318Z,52.00
2022-07-30T00:06:42.359Z,52.00
2022-07-30T00:09:50.443Z,52.20
2022-07-30T00:12:58.779Z,52.00
2022-07-30T00:16:08.491Z,52.10
2022-07-30T00:19:16.910Z,52.10
2022-07-30T00:22:25.813Z,52.20
2022-07-30T00:25:33.957Z,52.20
2022-07-30T00:28:41.995Z,52.70
2022-07-30T00:31:51.700Z,52.10
2022-07-30T00:34:59.609Z,52.20
2022-07-30T00:38:07.507Z,52.20
2022-07-30T00:41:15.855Z,52.20
2022-07-30T00:44:24.632Z,52.20
2022-07-30T00:47:35.380Z,52.30
2022-07-30T00:50:43.383Z,52.20
2022-07-30T00:53:53.707Z,52.20
2022-07-30T00:57:02.019Z,52.30
2022-07-30T01:00:11.760Z,52.30
2022-07-30T01:03:21.714Z,52.30
2022-07-30T01:06:29.882Z,52.30
2022-07-30T01:09:37.935Z,52.30
2022-07-30T01:12:46.000Z,52.30
2022-07-30T01:15:53.950Z,52.20
2022-07-30T01:19:21.226Z,52.30
2022-07-30T01:22:38.244Z,52.30
2022-07-30T01:25:54.457Z,52.30
2022-07-30T01:29:04.135Z,52.40
2022-07-30T01:32:12.533Z,52.50
2022-07-30T01:35:20.631Z,52.40
2022-07-30T01:38:31.161Z,52.50
2022-07-30T01:41:45.130Z,52.50
2022-07-30T01:44:53.651Z,52.70
2022-07-30T01:48:03.159Z,52.70
2022-07-30T01:51:12.708Z,52.80
2022-07-30T01:54:25.455Z,52.70
2022-07-30T01:57:35.163Z,52.70
2022-07-30T02:00:44.483Z,52.70
2022-07-30T02:03:52.598Z,52.70
2022-07-30T02:07:04.461Z,52.80
2022-07-30T02:10:14.711Z,52.90
2022-07-30T02:13:28.994Z,53.00
2022-07-30T02:16:38.974Z,53.00
2022-07-30T02:19:47.562Z,53.10
2022-07-30T02:22:56.630Z,53.30
2022-07-30T02:26:05.227Z,53.40
2022-07-30T02:29:16.585Z,53.40
2022-07-30T02:32:27.762Z,53.30
2022-07-30T02:35:37.797Z,53.40
2022-07-30T02:38:45.941Z,53.40
2022-07-30T02:41:54.563Z,53.50
2022-07-30T02:45:04.150Z,53.60
2022-07-30T02:48:12.475Z,53.50
2022-07-30T02:51:41.480Z,53.60
2022-07-30T02:54:49.487Z,53.60
2022-07-30T02:57:57.798Z,53.60
2022-07-30T03:01:07.429Z,53.60
2022-07-30T03:04:15.524Z,53.70
2022-07-30T03:07:23.463Z,53.90
2022-07-30T03:10:31.900Z,54.10
2022-07-30T03:13:39.965Z,54.00
2022-07-30T03:16:56.673Z,54.00
2022-07-30T03:20:05.496Z,54.00
2022-07-30T03:23:13.395Z,54.20
2022-07-30T03:26:21.350Z,54.20
2022-07-30T03:29:29.487Z,54.50
2022-07-30T03:32:39.372Z,54.50
2022-07-30T03:35:51.245Z,54.50
2022-07-30T03:38:59.178Z,54.60
2022-07-30T03:42:08.214Z,54.60
2022-07-30T03:45:18.681Z,54.80
2022-07-30T03:48:28.212Z,55.00
2022-07-30T03:51:37.047Z,54.90
2022-07-30T03:54:45.373Z,54.90
2022-07-30T03:58:35.743Z,55.50
2022-07-30T04:01:46.471Z,55.00
2022-07-30T04:05:05.300Z,55.10
2022-07-30T04:08:14.494Z,55.20
2022-07-30T04:11:40.807Z,55.60
2022-07-30T04:14:53.567Z,55.40
2022-07-30T04:18:03.741Z,55.80
2022-07-30T04:21:17.111Z,55.60
2022-07-30T04:24:26.518Z,55.50
2022-07-30T04:27:35.877Z,55.70
2022-07-30T04:30:44.127Z,55.60
2022-07-30T04:33:52.240Z,55.60
2022-07-30T04:37:11.738Z,55.70
2022-07-30T04:40:20.083Z,56.00
2022-07-30T04:43:27.964Z,55.80
2022-07-30T04:46:36.704Z,56.10
2022-07-30T04:49:45.014Z,56.10
2022-07-30T04:52:55.013Z,56.10
2022-07-30T04:56:08.110Z,56.20
2022-07-30T04:59:17.254Z,56.10
2022-07-30T05:02:26.587Z,56.30
2022-07-30T05:05:34.752Z,56.50
2022-07-30T05:08:44.109Z,56.50
2022-07-30T05:11:53.310Z,56.20
2022-07-30T05:15:01.600Z,56.20
2022-07-30T05:18:09.783Z,56.50
2022-07-30T05:21:21.213Z,56.30
2022-07-30T05:24:31.614Z,56.20
2022-07-30T05:27:40.661Z,56.20
2022-07-30T05:30:48.982Z,56.50
2022-07-30T05:34:03.023Z,56.70
2022-07-30T05:37:21.364Z,56.50
2022-07-30T05:40:30.882Z,56.90
2022-07-30T05:43:55.817Z,56.90
2022-07-30T05:47:04.483Z,57.50
2022-07-30T05:50:12.768Z,57.00
2022-07-30T05:53:22.143Z,56.90
2022-07-30T05:56:57.415Z,56.80
2022-07-30T06:00:14.881Z,56.60
2022-07-30T06:03:26.204Z,56.70
2022-07-30T06:06:53.140Z,56.70
2022-07-30T06:10:01.715Z,56.90
2022-07-30T06:13:11.602Z,57.20
2022-07-30T06:16:20.082Z,56.70
2022-07-30T06:19:28.164Z,57.00
2022-07-30T06:22:36.270Z,57.20
2022-07-30T06:25:49.872Z,57.00
2022-07-30T06:28:59.465Z,56.90
2022-07-30T06:32:11.362Z,57.00
2022-07-30T06:35:19.604Z,57.10
2022-07-30T06:38:27.829Z,57.00
2022-07-30T06:41:41.900Z,57.00
2022-07-30T06:44:53.941Z,57.00
2022-07-30T06:48:05.644Z,57.00
2022-07-30T06:51:14.120Z,57.00
2022-07-30T06:54:23.398Z,57.00
2022-07-30T06:57:42.578Z,57.10
2022-07-30T07:01:11.171Z,57.00
2022-07-30T07:04:19.992Z,56.90
2022-07-30T07:07:41.147Z,57.20
2022-07-30T07:10:50.858Z,57.10
2022-07-30T07:14:13.715Z,57.00
2022-07-30T07:17:23.323Z,56.90
2022-07-30T07:20:47.399Z,56.70
2022-07-30T07:23:55.461Z,56.80
2022-07-30T07:27:26.234Z,56.60
2022-07-30T07:30:38.441Z,56.30
2022-07-30T07:33:50.456Z,56.10
2022-07-30T07:36:58.932Z,56.00
2022-07-30T07:40:08.770Z,55.90
2022-07-30T07:43:21.862Z,55.80
2022-07-30T07:46:33.761Z,55.50
2022-07-30T07:49:44.793Z,54.70
2022-07-30T07:52:53.155Z,54.50
2022-07-30T07:56:04.436Z,53.90
2022-07-30T07:59:12.865Z,53.80
2022-07-30T08:02:23.652Z,53.70
2022-07-30T08:06:02.080Z,53.20
2022-07-30T08:09:44.098Z,53.20
2022-07-30T08:13:49.001Z,53.20
2022-07-30T08:17:06.794Z,53.00
2022-07-30T08:20:42.504Z,52.40
2022-07-30T08:23:52.755Z,52.20
2022-07-30T08:27:01.130Z,52.00
2022-07-30T08:30:10.716Z,51.90
2022-07-30T08:33:19.815Z,51.80
2022-07-30T08:36:29.430Z,51.40
2022-07-30T08:39:37.503Z,51.30
2022-07-30T08:42:45.770Z,51.00
2022-07-30T08:45:55.071Z,51.00
2022-07-30T08:49:29.242Z,50.90
2022-07-30T08:52:40.179Z,50.80
2022-07-30T08:55:49.593Z,50.40
2022-07-30T08:58:57.811Z,50.20
2022-07-30T09:02:10.391Z,49.70
2022-07-30T09:05:33.545Z,50.50
2022-07-30T09:08:43.497Z,49.20
2022-07-30T09:11:52.292Z,48.80
2022-07-30T09:15:03.250Z,48.90
2022-07-30T09:18:11.125Z,49.10
2022-07-30T09:21:20.776Z,49.00
2022-07-30T09:24:42.443Z,48.90
2022-07-30T09:28:15.876Z,48.70
2022-07-30T09:31:54.374Z,48.50
2022-07-30T09:35:25.296Z,48.60
2022-07-30T09:38:53.064Z,48.40
2022-07-30T09:42:34.116Z,48.30
2022-07-30T09:45:57.235Z,48.50
2022-07-30T09:49:15.255Z,48.40
2022-07-30T09:52:29.186Z,47.80
2022-07-30T09:55:41.463Z,47.60
2022-07-30T09:58:52.007Z,47.70
2022-07-30T10:02:03.657Z,47.60
2022-07-30T10:05:38.485Z,47.60
2022-07-30T10:08:48.414Z,47.60
2022-07-30T10:11:57.463Z,47.90
2022-07-30T10:15:10.701Z,47.80
2022-07-30T10:18:21.798Z,47.90
2022-07-30T10:21:49.567Z,47.90
2022-07-30T10:25:00.219Z,47.80
2022-07-30T10:28:48.011Z,47.60
2022-07-30T10:31:57.702Z,47.70
2022-07-30T10:35:07.593Z,47.70
2022-07-30T10:38:15.961Z,47.50
2022-07-30T10:41:44.280Z,47.40
2022-07-30T10:45:18.266Z,47.30
2022-07-30T10:48:28.184Z,47.30
2022-07-30T10:51:46.743Z,47.40
2022-07-30T10:54:55.055Z,47.40
2022-07-30T10:58:05.940Z,47.40
2022-07-30T11:01:18.159Z,47.40
2022-07-30T11:04:29.538Z,47.40
2022-07-30T11:07:37.962Z,47.70
2022-07-30T11:10:46.134Z,47.40
2022-07-30T11:13:55.087Z,47.70
2022-07-30T11:17:03.695Z,47.60
2022-07-30T11:20:14.626Z,47.70
2022-07-30T11:23:39.451Z,47.50
2022-07-30T11:26:53.807Z,47.20
2022-07-30T11:30:03.362Z,47.30
2022-07-30T11:33:32.238Z,47.30
2022-07-30T11:37:18.703Z,47.20
2022-07-30T11:40:30.840Z,47.30
2022-07-30T11:43:41.594Z,47.20
2022-07-30T11:46:49.534Z,47.00
2022-07-30T11:49:57.462Z,46.90
2022-07-30T11:53:07.707Z,46.90
2022-07-30T11:56:16.438Z,46.70
2022-07-30T11:59:24.424Z,46.80
2022-07-30T12:02:32.495Z,46.70
2022-07-30T12:05:40.576Z,46.50
2022-07-30T12:08:52.888Z,46.40
2022-07-30T12:12:04.633Z,46.30
2022-07-30T12:15:13.033Z,46.40
2022-07-30T12:18:27.775Z,46.10
2022-07-30T12:21:36.022Z,46.10
2022-07-30T12:24:45.407Z,46.00
2022-07-30T12:27:53.658Z,45.70
2022-07-30T12:31:02.833Z,45.80
2022-07-30T12:34:21.407Z,45.70
2022-07-30T12:37:29.378Z,45.80
2022-07-30T12:40:56.112Z,45.50
2022-07-30T12:44:04.028Z,45.50
2022-07-30T12:47:23.755Z,45.60
2022-07-30T12:50:32.192Z,45.60
2022-07-30T12:53:41.236Z,45.40
2022-07-30T12:57:01.283Z,45.10
2022-07-30T13:00:10.588Z,45.10
2022-07-30T13:03:22.406Z,44.00
2022-07-30T13:06:30.300Z,44.20
2022-07-30T13:09:38.403Z,44.40
2022-07-30T13:12:47.899Z,44.20
2022-07-30T13:16:00.681Z,44.10
2022-07-30T13:19:11.250Z,44.30
2022-07-30T13:22:19.262Z,44.40
2022-07-30T13:25:28.043Z,44.20
2022-07-30T13:28:50.005Z,43.80
2022-07-30T13:31:57.963Z,43.90
2022-07-30T13:35:07.866Z,44.10
2022-07-30T13:38:15.793Z,44.10
2022-07-30T13:41:23.661Z,44.20
2022-07-30T13:44:32.967Z,44.20
2022-07-30T13:47:41.063Z,44.20
2022-07-30T13:50:48.933Z,44.20
2022-07-30T13:53:56.804Z,44.20
2022-07-30T13:57:05.292Z,43.90
2022-07-30T14:00:15.831Z,43.90
2022-07-30T14:03:24.053Z,44.00
2022-07-30T14:06:32.379Z,44.00
2022-07-30T14:09:44.805Z,43.80
2022-07-30T14:12:55.982Z,43.70
2022-07-30T14:16:18.110Z,43.70
2022-07-30T14:19:35.343Z,43.70
2022-07-30T14:22:43.657Z,43.90
2022-07-30T14:25:51.837Z,43.90
2022-07-30T14:28:59.906Z,43.90
2022-07-30T14:32:09.300Z,43.50
2022-07-30T14:35:17.577Z,43.40
2022-07-30T14:38:26.451Z,43.40
2022-07-30T14:41:34.870Z,43.50
2022-07-30T14:44:42.984Z,43.00
2022-07-30T14:47:52.487Z,43.20
2022-07-30T14:51:14.782Z,43.20
2022-07-30T14:54:24.413Z,43.40
2022-07-30T14:57:32.524Z,43.20
2022-07-30T15:00:48.480Z,43.40
2022-07-30T15:03:58.362Z,43.20
2022-07-30T15:07:06.979Z,43.30
2022-07-30T15:10:15.571Z,43.30
2022-07-30T15:13:23.772Z,43.30
2022-07-30T15:16:35.239Z,43.40
2022-07-30T15:19:49.358Z,43.50
2022-07-30T15:22:59.372Z,43.50
2022-07-30T15:26:07.332Z,43.50
2022-07-30T15:29:15.232Z,43.70
2022-07-30T15:32:23.334Z,43.90
2022-07-30T15:35:32.835Z,43.60
2022-07-30T15:38:41.200Z,43.40
2022-07-30T15:41:52.491Z,43.20
2022-07-30T15:45:18.857Z,43.20
2022-07-30T15:48:27.767Z,43.80
2022-07-30T15:51:37.355Z,43.00
2022-07-30T15:54:45.217Z,43.00
2022-07-30T15:57:53.419Z,43.20
2022-07-30T16:01:01.614Z,42.90
2022-07-30T16:04:19.101Z,43.50
2022-07-30T16:07:29.579Z,42.80
2022-07-30T16:10:37.852Z,43.20
2022-07-30T16:13:46.131Z,43.20
2022-07-30T16:16:54.083Z,43.10
2022-07-30T16:20:03.421Z,43.40
2022-07-30T16:23:15.980Z,43.30
2022-07-30T16:26:27.567Z,43.30
2022-07-30T16:29:35.575Z,43.20
2022-07-30T16:32:43.537Z,43.40
2022-07-30T16:35:51.599Z,43.20
2022-07-30T16:39:01.240Z,43.00
2022-07-30T16:42:09.106Z,43.10
2022-07-30T16:45:17.124Z,43.30
2022-07-30T16:48:25.128Z,43.20
2022-07-30T16:51:33.019Z,43.40
2022-07-30T16:54:42.331Z,43.20
2022-07-30T16:57:50.378Z,43.60
2022-07-30T17:00:58.336Z,43.70
2022-07-30T17:04:06.342Z,43.70
2022-07-30T17:07:14.752Z,44.00
2022-07-30T17:10:04.593Z,44.30
2022-07-30T17:12:54.658Z,44.30
2022-07-30T17:15:46.762Z,45.00
2022-07-30T17:18:50.411Z,44.80
2022-07-30T17:21:57.148Z,44.60
2022-07-30T17:24:45.142Z,44.60
2022-07-30T17:27:53.049Z,44.60
2022-07-30T17:30:41.018Z,44.60
2022-07-30T17:33:48.692Z,44.40
2022-07-30T17:36:36.920Z,44.80
2022-07-30T17:40:18.749Z,44.70
2022-07-30T17:43:14.564Z,44.80
2022-07-30T17:46:23.323Z,45.50
2022-07-30T17:49:31.470Z,45.00
2022-07-30T17:52:41.030Z,45.30
2022-07-30T17:55:57.285Z,45.50
2022-07-30T17:59:10.914Z,45.90
2022-07-30T18:02:25.789Z,46.00
2022-07-30T18:05:37.309Z,46.10
2022-07-30T18:08:45.389Z,46.20
2022-07-30T18:11:53.889Z,46.50
2022-07-30T18:15:03.319Z,46.70
2022-07-30T18:18:11.412Z,46.70
2022-07-30T18:21:19.654Z,47.00
2022-07-30T18:24:27.539Z,47.00
2022-07-30T18:27:36.594Z,47.10
2022-07-30T18:30:46.119Z,47.30
2022-07-30T18:33:54.378Z,47.40
2022-07-30T18:37:02.590Z,47.50
2022-07-30T18:40:11.793Z,47.50
2022-07-30T18:43:20.143Z,47.60
2022-07-30T18:46:29.763Z,47.40
2022-07-30T18:49:38.327Z,47.60
2022-07-30T18:52:46.532Z,47.60
2022-07-30T18:55:54.806Z,47.70
2022-07-30T18:59:02.704Z,47.60
2022-07-30T19:02:12.503Z,47.60
2022-07-30T19:05:20.664Z,47.60
2022-07-30T19:08:28.695Z,47.90
2022-07-30T19:11:36.475Z,47.90
2022-07-30T19:14:45.578Z,47.80
2022-07-30T19:17:55.124Z,47.90
2022-07-30T19:21:03.931Z,48.00
2022-07-30T19:24:12.419Z,48.10
2022-07-30T19:27:20.682Z,48.20
2022-07-30T19:30:28.701Z,48.10
2022-07-30T19:33:38.177Z,48.80
2022-07-30T19:36:46.102Z,48.30
2022-07-30T19:40:05.593Z,48.60
2022-07-30T19:43:14.739Z,48.30
2022-07-30T19:46:24.223Z,48.50
2022-07-30T19:49:40.395Z,48.50
2022-07-30T19:52:51.568Z,48.50
2022-07-30T19:56:01.804Z,48.50
2022-07-30T19:59:15.152Z,48.60
2022-07-30T20:02:23.354Z,48.80
2022-07-30T20:05:33.420Z,48.90
2022-07-30T20:09:01.459Z,48.80
2022-07-30T20:12:12.809Z,48.90
2022-07-30T20:15:22.430Z,48.90
2022-07-30T20:18:31.240Z,49.00
2022-07-30T20:21:57.604Z,48.90
2022-07-30T20:25:10.602Z,49.00
2022-07-30T20:28:18.898Z,49.20
2022-07-30T20:31:27.181Z,49.40
2022-07-30T20:34:36.267Z,49.20
2022-07-30T20:37:55.229Z,49.20
2022-07-30T20:41:04.263Z,49.40
2022-07-30T20:44:23.593Z,49.40
2022-07-30T20:47:47.075Z,49.40
2022-07-30T20:50:56.016Z,49.30
2022-07-30T20:54:06.954Z,49.40
2022-07-30T20:57:15.655Z,49.50
2022-07-30T21:00:25.321Z,49.40
2022-07-30T21:03:33.228Z,49.30
2022-07-30T21:06:44.354Z,49.40
2022-07-30T21:09:53.915Z,49.30
2022-07-30T21:13:03.022Z,49.20
2022-07-30T21:16:16.858Z,49.90
2022-07-30T21:19:25.159Z,49.30
2022-07-30T21:22:37.199Z,49.10
2022-07-30T21:26:02.760Z,49.40
2022-07-30T21:29:11.289Z,49.20
2022-07-30T21:32:20.240Z,49.20
2022-07-30T21:35:34.896Z,49.10
2022-07-30T21:38:43.100Z,49.10
2022-07-30T21:41:52.514Z,49.10
2022-07-30T21:45:04.251Z,49.80
2022-07-30T21:48:13.272Z,49.70
2022-07-30T21:51:21.536Z,49.60
2022-07-30T21:54:31.654Z,49.50
2022-07-30T21:57:43.400Z,49.60
2022-07-30T22:01:14.975Z,49.60
2022-07-30T22:04:25.989Z,49.70
2022-07-30T22:07:35.367Z,49.80
2022-07-30T22:10:45.314Z,49.70
2022-07-30T22:13:55.747Z,49.60
2022-07-30T22:17:04.334Z,49.80
2022-07-30T22:20:13.438Z,49.90
2022-07-30T22:23:21.799Z,50.00
2022-07-30T22:26:29.913Z,50.00
2022-07-30T22:29:42.520Z,50.00
2022-07-30T22:32:51.030Z,50.00
2022-07-30T22:36:00.108Z,50.10
2022-07-30T22:39:08.941Z,50.10
2022-07-30T22:42:17.306Z,50.20
2022-07-30T22:45:44.832Z,50.10
2022-07-30T22:48:56.276Z,50.10
2022-07-30T22:52:10.650Z,50.20
2022-07-30T22:55:26.414Z,50.30
2022-07-30T22:58:34.823Z,50.40
2022-07-30T23:01:44.654Z,50.40
2022-07-30T23:04:52.613Z,50.50
2022-07-30T23:08:00.535Z,50.50
2022-07-30T23:11:10.122Z,50.60
2022-07-30T23:14:18.812Z,50.60
2022-07-30T23:17:28.378Z,50.70
2022-07-30T23:20:36.576Z,50.80
2022-07-30T23:23:44.976Z,50.80
2022-07-30T23:26:53.197Z,50.90
2022-07-30T23:30:01.350Z,50.90
2022-07-30T23:33:10.749Z,51.00
2022-07-30T23:36:18.895Z,51.00
2022-07-30T23:39:26.812Z,51.20
2022-07-30T23:42:35.069Z,51.20
2022-07-30T23:45:43.235Z,51.30
2022-07-30T23:48:53.101Z,51.20
2022-07-30T23:52:01.295Z,51.30
2022-07-30T23:55:10.015Z,51.40
2022-07-30T23:58:18.219Z,51.40
